Terminal Aerodrome Forecast
Issued by NWS Wakefield, VA

Home | Current Version | Previous Version | Text Only | Print | Product List | Glossary On
Versions: 1 2 3 4 5 6 7 8 9 10 11 12 13 14
000
FTUS41 KAKQ 211100
TAFRIC
TAF
KRIC 211124Z 2112/2212 00000KT P6SM OVC070
     FM211500 05003KT P6SM OVC070
     FM211900 08003KT P6SM SCT060
     FM220900 04004KT P6SM OVC050=

USA.gov is the U.S. government's official web portal to all federal, state and local government web resources and services.